Bookmark and Share
Track history (hours):
 

Ms-hammaritha

Last reported at 2014-Apr-24 13:16 UTC. Time now 2014-Apr-24 13:41 UTC.
Position N 51°42' E 004°25'.

Length 86 m.

Type: Ship. MMSI: 244700691.

NotesDate/timePositionNaut miles runAvg speedWind from/ knotsBaromVisibWave heightAir tempDewpointWater temp
2014-Apr-24 13:16N 51°42' E 004°25'1 1.2
2014-Apr-24 12:32N 51°41' E 004°24'6 5.4
2014-Apr-24 11:29N 51°39' E 004°17'4 4.7
2014-Apr-24 10:32N 51°40' E 004°10'5 4.9
2014-Apr-24 09:32N 51°37' E 004°03'5 4.7
2014-Apr-24 08:33N 51°33' E 003°59'6 5.8
2014-Apr-24 07:34N 51°27' E 004°01'6 6.0
2014-Apr-24 06:33N 51°22' E 003°56'5 4.8
2014-Apr-24 05:33N 51°20' E 003°49'3 3.2
2014-Apr-24 04:33N 51°17' E 003°51'0 0.0
2014-Apr-24 03:31N 51°17' E 003°51'0 0.0
2014-Apr-24 02:29N 51°17' E 003°51'0 0.0
2014-Apr-24 01:29N 51°17' E 003°51'0 0.0
2014-Apr-24 00:32N 51°17' E 003°51'0 0.0
2014-Apr-23 23:32N 51°17' E 003°51'0 0.0
2014-Apr-23 22:33N 51°17' E 003°51'0 0.0
2014-Apr-23 21:33N 51°17' E 003°51'0 0.1
2014-Apr-23 20:34N 51°16' E 003°51'0 0.0
2014-Apr-23 19:34N 51°16' E 003°51'0 0.0
2014-Apr-23 18:31N 51°16' E 003°51'0 0.0
2014-Apr-23 17:33N 51°16' E 003°51'0 0.0
2014-Apr-23 16:33N 51°16' E 003°51'0 0.0
2014-Apr-23 15:34N 51°16' E 003°51'0 0.0
2014-Apr-23 14:33N 51°16' E 003°51'0 0.0
2014-Apr-23 13:33N 51°16' E 003°51'2 2.1
2014-Apr-23 12:26N 51°19' E 003°50'4 4.1
2014-Apr-23 11:33N 51°22' E 003°54'7 7.4
2014-Apr-23 10:33N 51°27' E 004°01'6 5.5
2014-Apr-23 09:33N 51°33' E 003°59'6 6.3
2014-Apr-23 08:33N 51°38' E 004°05'3 3.5
2014-Apr-23 07:33N 51°40' E 004°10'7 6.7
2014-Apr-23 06:30N 51°40' E 004°21'3 3.6
2014-Apr-23 05:33N 51°42' E 004°25'6 5.6
2014-Apr-23 04:32N 51°42' E 004°34'2 2.2
2014-Apr-23 03:33N 51°43' E 004°38'0 0.0
2014-Apr-23 02:33N 51°43' E 004°38'0 0.0
2014-Apr-23 01:31N 51°43' E 004°38'0 0.0
2014-Apr-23 00:33N 51°43' E 004°38'0 0.0
2014-Apr-22 23:33N 51°43' E 004°38'0 0.0
2014-Apr-22 22:33N 51°43' E 004°38'3 3.4
2014-Apr-22 21:33N 51°43' E 004°43'8 8.3
2014-Apr-22 20:33N 51°43' E 004°57'7 7.5
2014-Apr-22 19:33N 51°45' E 005°08'1 0.5
2014-Apr-22 18:33N 51°46' E 005°09'0 0.0
2014-Apr-22 17:33N 51°46' E 005°09'0 0.0
2014-Apr-22 16:34N 51°46' E 005°09'0 0.0
2014-Apr-22 15:33N 51°46' E 005°09'0 0.0
2014-Apr-22 14:33N 51°46' E 005°09'0 0.0
2014-Apr-22 13:34N 51°46' E 005°09'0 0.1
2014-Apr-22 12:33N 51°46' E 005°09'0 0.0
2014-Apr-22 11:33N 51°46' E 005°08'0 0.0
2014-Apr-22 10:33N 51°46' E 005°08'1 0.8
2014-Apr-22 09:34N 51°46' E 005°10'0 0.0
2014-Apr-22 08:33N 51°46' E 005°10'0 0.0
2014-Apr-22 07:33N 51°46' E 005°10'0 0.0
2014-Apr-22 06:34N 51°46' E 005°10'0 0.0
2014-Apr-22 05:33N 51°46' E 005°10'0 0.0
2014-Apr-22 04:33N 51°46' E 005°10'0 0.0
2014-Apr-22 03:33N 51°46' E 005°10'0 0.0
2014-Apr-22 02:34N 51°46' E 005°10'0 0.0
2014-Apr-22 01:33N 51°46' E 005°10'0 0.0
2014-Apr-22 00:33N 51°46' E 005°10'0 0.0
2014-Apr-21 23:34N 51°46' E 005°10'0 0.0
2014-Apr-21 22:33N 51°46' E 005°10'0 0.0
2014-Apr-21 21:33N 51°46' E 005°10'0 0.0
2014-Apr-21 20:33N 51°46' E 005°10'0 0.0
2014-Apr-21 13:34N 51°46' E 005°10'0 0.0
2014-Apr-21 12:33N 51°46' E 005°10'0 0.0
2014-Apr-21 11:33N 51°46' E 005°10'0 0.0
2014-Apr-21 10:33N 51°46' E 005°10'0 0.0
2014-Apr-21 09:33N 51°46' E 005°10'0 0.0
2014-Apr-21 08:33N 51°46' E 005°10'0 0.0
2014-Apr-21 07:33N 51°46' E 005°10'0 0.0
2014-Apr-21 06:33N 51°46' E 005°10'0 0.0
2014-Apr-21 05:33N 51°46' E 005°10'0 0.0
2014-Apr-21 04:34N 51°46' E 005°10'0 0.0
2014-Apr-21 03:33N 51°46' E 005°10'0 0.0
2014-Apr-21 02:33N 51°46' E 005°10'0 0.0
2014-Apr-21 01:33N 51°46' E 005°10'0 0.0
2014-Apr-21 00:33N 51°46' E 005°10'0 0.0
2014-Apr-20 23:34N 51°46' E 005°10'0 0.0
2014-Apr-20 22:33N 51°46' E 005°10'0 0.0
2014-Apr-20 21:33N 51°46' E 005°10'0 0.0
2014-Apr-20 20:33N 51°46' E 005°10'0 0.0
2014-Apr-20 19:33N 51°46' E 005°10'0 0.0
2014-Apr-20 18:33N 51°46' E 005°10'0 0.0
2014-Apr-20 17:33N 51°46' E 005°10'0 0.0
2014-Apr-20 10:28N 51°46' E 005°10'0 0.0
2014-Apr-20 09:33N 51°46' E 005°10'0 0.0
2014-Apr-20 08:31N 51°46' E 005°10'0 0.0
2014-Apr-20 07:33N 51°46' E 005°10'0 0.0
2014-Apr-20 06:33N 51°46' E 005°10'0 0.0
2014-Apr-20 05:33N 51°46' E 005°10'0 0.0
2014-Apr-20 04:33N 51°46' E 005°10'0 0.0
2014-Apr-20 03:33N 51°46' E 005°10'0 0.0
2014-Apr-20 02:33N 51°46' E 005°10'0 0.0
2014-Apr-20 01:33N 51°46' E 005°10'0 0.0
2014-Apr-20 00:33N 51°46' E 005°10'0 0.0
2014-Apr-19 23:33N 51°46' E 005°10'0 0.0
2014-Apr-19 22:33N 51°46' E 005°10'0 0.0
2014-Apr-19 21:33N 51°46' E 005°10'0 0.0
2014-Apr-19 20:33N 51°46' E 005°10'0 0.0
2014-Apr-19 19:33N 51°46' E 005°10'0 0.0
2014-Apr-19 18:33N 51°46' E 005°10'0 0.0
2014-Apr-19 17:33N 51°46' E 005°10'0 0.0
2014-Apr-19 16:33N 51°46' E 005°10'0 0.0
2014-Apr-19 15:33N 51°46' E 005°10'0 0.0
2014-Apr-19 14:33N 51°46' E 005°10'0 0.0
2014-Apr-19 13:33N 51°46' E 005°10'0 0.0
2014-Apr-19 12:33N 51°46' E 005°10'0 0.0
2014-Apr-19 11:33N 51°46' E 005°10'0 0.0
2014-Apr-19 10:33N 51°46' E 005°10'0 0.0
2014-Apr-19 09:33N 51°46' E 005°10'2 1.7
2014-Apr-19 08:33N 51°44' E 005°08'6 6.0
2014-Apr-19 07:33N 51°44' E 005°17'4 4.5
2014-Apr-19 06:33N 51°48' E 005°21'6 6.1
2014-Apr-19 05:33N 51°53' E 005°27'4 3.9
2014-Apr-19 04:33N 51°54' E 005°33'0 0.0
2014-Apr-19 03:32N 51°54' E 005°33'0 0.0
2014-Apr-19 02:33N 51°54' E 005°33'0 0.0
2014-Apr-19 01:32N 51°54' E 005°33'0 0.0
2014-Apr-19 00:33N 51°54' E 005°33'0 0.0
2014-Apr-18 23:33N 51°54' E 005°33'0 0.0
2014-Apr-18 22:33N 51°54' E 005°33'0 0.0
2014-Apr-18 21:33N 51°54' E 005°33'3 2.5
2014-Apr-18 20:30N 51°54' E 005°37'8 8.0
2014-Apr-18 19:27N 51°52' E 005°50'9 2.7
2014-Apr-18 16:12N 51°58' E 005°59'4 2.0
2014-Apr-18 14:26N 52°00' E 006°04'1 0.9
2014-Apr-18 13:31N 52°01' E 006°04'0 0.0
2014-Apr-18 12:27N 52°01' E 006°04'0 0.0
2014-Apr-18 11:33N 52°01' E 006°04'0 0.2
2014-Apr-18 10:30N 52°01' E 006°03'0 0.0
2014-Apr-18 09:26N 52°01' E 006°03'0 0.1
2014-Apr-18 08:23N 52°01' E 006°04'5 4.5
2014-Apr-18 07:15N 51°58' E 005°57'6 7.5
2014-Apr-18 06:25N 51°52' E 006°03'4 4.5
2014-Apr-18 05:27N 51°52' E 005°56'  

Dump ship's entire track history

sailing weather and tide predictions

Ms-hammaritha — PF2437 — position and weather